sensor_id;sensor_type;location;lat;lon;timestamp;temperature;humidity
26378;DHT22;14078;50.974;6.786;2024-02-21T00:02:25;9.60;99.90
26378;DHT22;14078;50.974;6.786;2024-02-21T00:04:52;9.50;99.90
26378;DHT22;14078;50.974;6.786;2024-02-21T00:07:18;9.50;99.90
26378;DHT22;14078;50.974;6.786;2024-02-21T00:09:46;9.50;99.90
26378;DHT22;14078;50.974;6.786;2024-02-21T00:12:13;9.50;99.90
26378;DHT22;14078;50.974;6.786;2024-02-21T00:14:40;9.60;99.90
26378;DHT22;14078;50.974;6.786;2024-02-21T00:17:07;9.60;99.90
26378;DHT22;14078;50.974;6.786;2024-02-21T00:19:34;9.60;99.90
26378;DHT22;14078;50.974;6.786;2024-02-21T00:22:00;9.60;99.90
26378;DHT22;14078;50.974;6.786;2024-02-21T00:24:27;9.50;1.00
26378;DHT22;14078;50.974;6.786;2024-02-21T00:26:55;9.60;1.00
26378;DHT22;14078;50.974;6.786;2024-02-21T00:29:22;9.50;1.00
26378;DHT22;14078;50.974;6.786;2024-02-21T00:31:49;9.60;1.00
26378;DHT22;14078;50.974;6.786;2024-02-21T00:34:16;9.60;1.00
26378;DHT22;14078;50.974;6.786;2024-02-21T00:36:42;9.60;99.90
26378;DHT22;14078;50.974;6.786;2024-02-21T00:39:09;9.60;1.00
26378;DHT22;14078;50.974;6.786;2024-02-21T00:41:36;9.60;99.90
26378;DHT22;14078;50.974;6.786;2024-02-21T00:44:04;9.60;1.00
26378;DHT22;14078;50.974;6.786;2024-02-21T00:46:31;9.60;1.00
26378;DHT22;14078;50.974;6.786;2024-02-21T00:48:58;9.60;1.00
26378;DHT22;14078;50.974;6.786;2024-02-21T00:51:25;9.60;1.00
26378;DHT22;14078;50.974;6.786;2024-02-21T00:53:51;9.50;1.00
26378;DHT22;14078;50.974;6.786;2024-02-21T00:56:18;9.40;1.00
26378;DHT22;14078;50.974;6.786;2024-02-21T00:58:45;9.40;1.00
26378;DHT22;14078;50.974;6.786;2024-02-21T01:01:13;9.40;1.00
26378;DHT22;14078;50.974;6.786;2024-02-21T01:03:40;9.40;1.00
26378;DHT22;14078;50.974;6.786;2024-02-21T01:06:06;9.40;1.00
26378;DHT22;14078;50.974;6.786;2024-02-21T01:08:33;9.40;1.00
26378;DHT22;14078;50.974;6.786;2024-02-21T01:11:00;9.40;1.00
26378;DHT22;14078;50.974;6.786;2024-02-21T01:13:26;9.40;1.00
26378;DHT22;14078;50.974;6.786;2024-02-21T01:15:53;9.40;1.00
26378;DHT22;14078;50.974;6.786;2024-02-21T01:18:21;9.40;1.00
26378;DHT22;14078;50.974;6.786;2024-02-21T01:20:47;9.50;1.00
26378;DHT22;14078;50.974;6.786;2024-02-21T01:23:14;9.50;1.00
26378;DHT22;14078;50.974;6.786;2024-02-21T01:25:41;9.50;1.00
26378;DHT22;14078;50.974;6.786;2024-02-21T01:28:08;9.40;1.00
26378;DHT22;14078;50.974;6.786;2024-02-21T01:30:34;9.40;1.00
26378;DHT22;14078;50.974;6.786;2024-02-21T01:33:01;9.50;1.00
26378;DHT22;14078;50.974;6.786;2024-02-21T01:35:29;9.40;1.00
26378;DHT22;14078;50.974;6.786;2024-02-21T01:37:56;9.50;1.00
26378;DHT22;14078;50.974;6.786;2024-02-21T01:40:22;9.40;1.00
26378;DHT22;14078;50.974;6.786;2024-02-21T01:42:49;9.50;1.00
26378;DHT22;14078;50.974;6.786;2024-02-21T01:45:19;9.40;1.00
26378;DHT22;14078;50.974;6.786;2024-02-21T01:47:45;9.50;1.00
26378;DHT22;14078;50.974;6.786;2024-02-21T01:50:14;9.50;1.00
26378;DHT22;14078;50.974;6.786;2024-02-21T01:52:43;9.50;1.00
26378;DHT22;14078;50.974;6.786;2024-02-21T01:55:13;9.40;1.00
26378;DHT22;14078;50.974;6.786;2024-02-21T01:57:40;9.40;1.00
26378;DHT22;14078;50.974;6.786;2024-02-21T02:00:09;9.40;1.00
26378;DHT22;14078;50.974;6.786;2024-02-21T02:02:38;9.40;1.00
26378;DHT22;14078;50.974;6.786;2024-02-21T02:05:05;9.40;1.00
26378;DHT22;14078;50.974;6.786;2024-02-21T02:07:32;9.40;1.00
26378;DHT22;14078;50.974;6.786;2024-02-21T02:10:00;9.40;1.00
26378;DHT22;14078;50.974;6.786;2024-02-21T02:12:28;9.40;1.00
26378;DHT22;14078;50.974;6.786;2024-02-21T02:14:58;9.40;1.00
26378;DHT22;14078;50.974;6.786;2024-02-21T02:17:25;9.40;1.00
26378;DHT22;14078;50.974;6.786;2024-02-21T02:19:51;9.40;1.00
26378;DHT22;14078;50.974;6.786;2024-02-21T02:22:22;9.40;1.00
26378;DHT22;14078;50.974;6.786;2024-02-21T02:24:50;9.50;1.00
26378;DHT22;14078;50.974;6.786;2024-02-21T02:27:17;9.40;1.00
26378;DHT22;14078;50.974;6.786;2024-02-21T02:29:44;9.40;1.00
26378;DHT22;14078;50.974;6.786;2024-02-21T02:32:12;9.40;1.00
26378;DHT22;14078;50.974;6.786;2024-02-21T02:34:38;9.50;1.00
26378;DHT22;14078;50.974;6.786;2024-02-21T02:37:05;9.30;1.00
26378;DHT22;14078;50.974;6.786;2024-02-21T02:39:32;9.30;1.00
26378;DHT22;14078;50.974;6.786;2024-02-21T02:42:00;9.40;1.00
26378;DHT22;14078;50.974;6.786;2024-02-21T02:44:26;9.40;1.00
26378;DHT22;14078;50.974;6.786;2024-02-21T02:46:53;9.40;1.00
26378;DHT22;14078;50.974;6.786;2024-02-21T02:49:20;9.40;1.00
26378;DHT22;14078;50.974;6.786;2024-02-21T02:51:46;9.40;1.00
26378;DHT22;14078;50.974;6.786;2024-02-21T02:54:13;9.40;1.00
26378;DHT22;14078;50.974;6.786;2024-02-21T02:56:40;9.40;1.00
26378;DHT22;14078;50.974;6.786;2024-02-21T02:59:08;9.40;1.00
26378;DHT22;14078;50.974;6.786;2024-02-21T03:01:34;9.40;1.00
26378;DHT22;14078;50.974;6.786;2024-02-21T03:04:01;9.40;1.00
26378;DHT22;14078;50.974;6.786;2024-02-21T03:06:28;9.40;1.00
26378;DHT22;14078;50.974;6.786;2024-02-21T03:08:55;9.40;1.00
26378;DHT22;14078;50.974;6.786;2024-02-21T03:11:21;9.40;1.00
26378;DHT22;14078;50.974;6.786;2024-02-21T03:13:54;9.40;1.00
26378;DHT22;14078;50.974;6.786;2024-02-21T03:16:22;9.40;1.00
26378;DHT22;14078;50.974;6.786;2024-02-21T03:18:49;9.40;1.00
26378;DHT22;14078;50.974;6.786;2024-02-21T03:21:15;9.40;1.00
26378;DHT22;14078;50.974;6.786;2024-02-21T03:23:42;9.40;1.00
26378;DHT22;14078;50.974;6.786;2024-02-21T03:26:09;9.40;1.00
26378;DHT22;14078;50.974;6.786;2024-02-21T03:28:35;9.40;1.00
26378;DHT22;14078;50.974;6.786;2024-02-21T03:31:02;9.40;1.00
26378;DHT22;14078;50.974;6.786;2024-02-21T03:33:30;9.40;1.00
26378;DHT22;14078;50.974;6.786;2024-02-21T03:35:57;9.40;1.00
26378;DHT22;14078;50.974;6.786;2024-02-21T03:38:24;9.40;1.00
26378;DHT22;14078;50.974;6.786;2024-02-21T03:40:51;9.40;1.00
26378;DHT22;14078;50.974;6.786;2024-02-21T03:43:17;9.40;1.00
26378;DHT22;14078;50.974;6.786;2024-02-21T03:45:44;9.30;1.00
26378;DHT22;14078;50.974;6.786;2024-02-21T03:48:11;9.10;1.00
26378;DHT22;14078;50.974;6.786;2024-02-21T03:50:39;9.10;23.50
26378;DHT22;14078;50.974;6.786;2024-02-21T03:53:06;9.20;1.00
26378;DHT22;14078;50.974;6.786;2024-02-21T03:55:32;9.20;1.00
26378;DHT22;14078;50.974;6.786;2024-02-21T03:57:59;9.30;1.00
26378;DHT22;14078;50.974;6.786;2024-02-21T04:00:25;9.20;1.00
26378;DHT22;14078;50.974;6.786;2024-02-21T04:02:52;9.10;36.30
26378;DHT22;14078;50.974;6.786;2024-02-21T04:05:19;9.10;59.30
26378;DHT22;14078;50.974;6.786;2024-02-21T04:07:47;9.00;69.60
26378;DHT22;14078;50.974;6.786;2024-02-21T04:10:14;9.10;44.20
26378;DHT22;14078;50.974;6.786;2024-02-21T04:12:40;9.10;74.20
26378;DHT22;14078;50.974;6.786;2024-02-21T04:15:07;9.10;89.90
26378;DHT22;14078;50.974;6.786;2024-02-21T04:17:35;9.20;6.50
26378;DHT22;14078;50.974;6.786;2024-02-21T04:20:04;9.20;45.00
26378;DHT22;14078;50.974;6.786;2024-02-21T04:22:33;9.10;1.40
26378;DHT22;14078;50.974;6.786;2024-02-21T04:25:01;9.20;1.00
26378;DHT22;14078;50.974;6.786;2024-02-21T04:27:27;9.30;1.00
26378;DHT22;14078;50.974;6.786;2024-02-21T04:29:55;9.20;1.00
26378;DHT22;14078;50.974;6.786;2024-02-21T04:32:21;9.20;1.00
26378;DHT22;14078;50.974;6.786;2024-02-21T04:34:48;9.20;1.00
26378;DHT22;14078;50.974;6.786;2024-02-21T04:37:15;9.10;3.30
26378;DHT22;14078;50.974;6.786;2024-02-21T04:39:41;9.00;16.10
26378;DHT22;14078;50.974;6.786;2024-02-21T04:42:09;9.00;31.20
26378;DHT22;14078;50.974;6.786;2024-02-21T04:44:36;9.00;1.00
26378;DHT22;14078;50.974;6.786;2024-02-21T04:47:03;9.10;14.40
26378;DHT22;14078;50.974;6.786;2024-02-21T04:49:30;9.10;15.70
26378;DHT22;14078;50.974;6.786;2024-02-21T04:51:57;9.10;58.90
26378;DHT22;14078;50.974;6.786;2024-02-21T04:54:23;9.10;51.50
26378;DHT22;14078;50.974;6.786;2024-02-21T04:56:50;9.20;1.00
26378;DHT22;14078;50.974;6.786;2024-02-21T04:59:18;9.10;8.50
26378;DHT22;14078;50.974;6.786;2024-02-21T05:01:45;9.00;34.70
26378;DHT22;14078;50.974;6.786;2024-02-21T05:04:12;9.00;70.70
26378;DHT22;14078;50.974;6.786;2024-02-21T05:06:39;9.00;81.90
26378;DHT22;14078;50.974;6.786;2024-02-21T05:09:06;9.00;97.10
26378;DHT22;14078;50.974;6.786;2024-02-21T05:11:34;9.00;99.90
26378;DHT22;14078;50.974;6.786;2024-02-21T05:14:00;9.10;2.10
26378;DHT22;14078;50.974;6.786;2024-02-21T05:16:29;9.00;24.50
26378;DHT22;14078;50.974;6.786;2024-02-21T05:18:55;9.00;60.30
26378;DHT22;14078;50.974;6.786;2024-02-21T05:21:23;9.00;82.20
26378;DHT22;14078;50.974;6.786;2024-02-21T05:23:50;9.00;51.00
26378;DHT22;14078;50.974;6.786;2024-02-21T05:26:20;9.20;1.00
26378;DHT22;14078;50.974;6.786;2024-02-21T05:28:48;9.20;1.00
26378;DHT22;14078;50.974;6.786;2024-02-21T05:31:15;9.20;1.00
26378;DHT22;14078;50.974;6.786;2024-02-21T05:33:43;9.30;1.00
26378;DHT22;14078;50.974;6.786;2024-02-21T05:36:09;9.30;1.00
26378;DHT22;14078;50.974;6.786;2024-02-21T05:38:36;9.30;1.00
26378;DHT22;14078;50.974;6.786;2024-02-21T05:41:03;9.40;99.90
26378;DHT22;14078;50.974;6.786;2024-02-21T05:43:30;9.40;99.90
26378;DHT22;14078;50.974;6.786;2024-02-21T05:45:57;9.30;99.90
26378;DHT22;14078;50.974;6.786;2024-02-21T05:48:24;9.30;99.90
26378;DHT22;14078;50.974;6.786;2024-02-21T05:50:52;9.30;99.90
26378;DHT22;14078;50.974;6.786;2024-02-21T05:53:19;9.30;99.90
26378;DHT22;14078;50.974;6.786;2024-02-21T05:55:46;9.30;1.00
26378;DHT22;14078;50.974;6.786;2024-02-21T05:58:12;9.30;49.70
26378;DHT22;14078;50.974;6.786;2024-02-21T06:00:39;9.30;99.90
26378;DHT22;14078;50.974;6.786;2024-02-21T06:03:06;9.40;99.90
26378;DHT22;14078;50.974;6.786;2024-02-21T06:05:37;9.30;99.90
26378;DHT22;14078;50.974;6.786;2024-02-21T06:08:05;9.30;99.90
26378;DHT22;14078;50.974;6.786;2024-02-21T06:10:32;9.30;99.90
26378;DHT22;14078;50.974;6.786;2024-02-21T06:12:59;9.40;99.90
26378;DHT22;14078;50.974;6.786;2024-02-21T06:15:25;9.30;99.90
26378;DHT22;14078;50.974;6.786;2024-02-21T06:17:52;9.30;99.90
26378;DHT22;14078;50.974;6.786;2024-02-21T06:20:19;9.30;99.90
26378;DHT22;14078;50.974;6.786;2024-02-21T06:22:45;9.30;99.90
26378;DHT22;14078;50.974;6.786;2024-02-21T06:25:13;9.30;85.30
26378;DHT22;14078;50.974;6.786;2024-02-21T06:27:40;9.40;1.00
26378;DHT22;14078;50.974;6.786;2024-02-21T06:30:07;9.30;1.00
26378;DHT22;14078;50.974;6.786;2024-02-21T06:32:34;9.30;47.30
26378;DHT22;14078;50.974;6.786;2024-02-21T06:35:01;9.40;99.90
26378;DHT22;14078;50.974;6.786;2024-02-21T06:37:28;9.30;99.90
26378;DHT22;14078;50.974;6.786;2024-02-21T06:39:55;9.30;99.90
26378;DHT22;14078;50.974;6.786;2024-02-21T06:42:24;9.20;1.00
26378;DHT22;14078;50.974;6.786;2024-02-21T06:44:51;9.30;1.00
26378;DHT22;14078;50.974;6.786;2024-02-21T06:47:18;9.20;1.00
26378;DHT22;14078;50.974;6.786;2024-02-21T06:49:48;9.30;1.00
26378;DHT22;14078;50.974;6.786;2024-02-21T06:52:15;9.30;1.00
26378;DHT22;14078;50.974;6.786;2024-02-21T06:54:42;9.10;1.00
26378;DHT22;14078;50.974;6.786;2024-02-21T06:57:09;9.00;3.20
26378;DHT22;14078;50.974;6.786;2024-02-21T06:59:37;8.90;17.60
26378;DHT22;14078;50.974;6.786;2024-02-21T07:02:03;8.90;34.00
26378;DHT22;14078;50.974;6.786;2024-02-21T07:04:30;8.90;21.30
26378;DHT22;14078;50.974;6.786;2024-02-21T07:06:57;8.90;42.70
26378;DHT22;14078;50.974;6.786;2024-02-21T07:09:23;8.90;56.60
26378;DHT22;14078;50.974;6.786;2024-02-21T07:11:50;8.90;72.90
26378;DHT22;14078;50.974;6.786;2024-02-21T07:14:18;8.90;83.90
26378;DHT22;14078;50.974;6.786;2024-02-21T07:16:46;8.90;92.30
26378;DHT22;14078;50.974;6.786;2024-02-21T07:19:13;8.80;80.70
26378;DHT22;14078;50.974;6.786;2024-02-21T07:21:40;8.80;98.70
26378;DHT22;14078;50.974;6.786;2024-02-21T07:24:07;8.80;99.90
26378;DHT22;14078;50.974;6.786;2024-02-21T07:26:34;8.80;89.80
26378;DHT22;14078;50.974;6.786;2024-02-21T07:29:01;8.90;39.80
26378;DHT22;14078;50.974;6.786;2024-02-21T07:31:28;9.00;30.60
26378;DHT22;14078;50.974;6.786;2024-02-21T07:33:56;9.00;50.90
26378;DHT22;14078;50.974;6.786;2024-02-21T07:36:29;9.00;88.00
26378;DHT22;14078;50.974;6.786;2024-02-21T07:38:55;9.00;95.90
26378;DHT22;14078;50.974;6.786;2024-02-21T07:41:22;9.00;96.00
26378;DHT22;14078;50.974;6.786;2024-02-21T07:43:49;9.10;60.80
26378;DHT22;14078;50.974;6.786;2024-02-21T07:46:16;9.10;22.00
26378;DHT22;14078;50.974;6.786;2024-02-21T07:48:42;9.00;17.40
26378;DHT22;14078;50.974;6.786;2024-02-21T07:51:10;9.00;45.40
26378;DHT22;14078;50.974;6.786;2024-02-21T07:53:39;8.90;62.50
26378;DHT22;14078;50.974;6.786;2024-02-21T07:56:10;9.00;65.70
26378;DHT22;14078;50.974;6.786;2024-02-21T07:58:36;9.10;14.60
26378;DHT22;14078;50.974;6.786;2024-02-21T08:01:03;9.10;29.20
26378;DHT22;14078;50.974;6.786;2024-02-21T08:03:30;9.10;42.30
26378;DHT22;14078;50.974;6.786;2024-02-21T08:05:56;9.10;14.30
26378;DHT22;14078;50.974;6.786;2024-02-21T08:08:24;9.20;1.00
26378;DHT22;14078;50.974;6.786;2024-02-21T08:10:51;9.20;1.00
26378;DHT22;14078;50.974;6.786;2024-02-21T08:13:18;9.20;1.00
26378;DHT22;14078;50.974;6.786;2024-02-21T08:15:45;9.20;1.00
26378;DHT22;14078;50.974;6.786;2024-02-21T08:18:11;9.20;1.00
26378;DHT22;14078;50.974;6.786;2024-02-21T08:20:38;9.20;1.00
26378;DHT22;14078;50.974;6.786;2024-02-21T08:23:05;9.40;1.00
26378;DHT22;14078;50.974;6.786;2024-02-21T08:25:33;9.40;1.00
26378;DHT22;14078;50.974;6.786;2024-02-21T08:27:59;9.40;1.00
26378;DHT22;14078;50.974;6.786;2024-02-21T08:30:26;9.40;1.00
26378;DHT22;14078;50.974;6.786;2024-02-21T08:32:53;9.40;1.00
26378;DHT22;14078;50.974;6.786;2024-02-21T08:35:20;9.30;1.00
26378;DHT22;14078;50.974;6.786;2024-02-21T08:37:48;9.30;1.00
26378;DHT22;14078;50.974;6.786;2024-02-21T08:40:15;9.40;1.00
26378;DHT22;14078;50.974;6.786;2024-02-21T08:42:47;9.40;1.00
26378;DHT22;14078;50.974;6.786;2024-02-21T08:45:14;9.40;1.00
26378;DHT22;14078;50.974;6.786;2024-02-21T08:47:41;9.40;99.90
26378;DHT22;14078;50.974;6.786;2024-02-21T08:50:08;9.40;1.00
26378;DHT22;14078;50.974;6.786;2024-02-21T08:52:36;9.50;99.90
26378;DHT22;14078;50.974;6.786;2024-02-21T08:55:03;9.50;99.90
26378;DHT22;14078;50.974;6.786;2024-02-21T08:57:30;9.60;99.90
26378;DHT22;14078;50.974;6.786;2024-02-21T09:00:03;9.60;99.90
26378;DHT22;14078;50.974;6.786;2024-02-21T09:02:35;9.70;99.90
26378;DHT22;14078;50.974;6.786;2024-02-21T09:05:02;9.70;99.90
26378;DHT22;14078;50.974;6.786;2024-02-21T09:07:30;9.70;1.00
26378;DHT22;14078;50.974;6.786;2024-02-21T09:09:57;9.80;99.90
26378;DHT22;14078;50.974;6.786;2024-02-21T09:12:24;9.80;99.90
26378;DHT22;14078;50.974;6.786;2024-02-21T09:14:50;9.90;1.00
26378;DHT22;14078;50.974;6.786;2024-02-21T09:17:18;10.00;99.90
26378;DHT22;14078;50.974;6.786;2024-02-21T09:19:46;10.10;1.00
26378;DHT22;14078;50.974;6.786;2024-02-21T09:22:12;10.20;1.00
26378;DHT22;14078;50.974;6.786;2024-02-21T09:24:39;10.20;99.90
26378;DHT22;14078;50.974;6.786;2024-02-21T09:27:06;10.20;99.90
26378;DHT22;14078;50.974;6.786;2024-02-21T09:29:33;10.30;1.00
26378;DHT22;14078;50.974;6.786;2024-02-21T09:31:59;10.20;99.90
26378;DHT22;14078;50.974;6.786;2024-02-21T09:34:27;10.30;83.40
26378;DHT22;14078;50.974;6.786;2024-02-21T09:36:54;10.30;1.00
26378;DHT22;14078;50.974;6.786;2024-02-21T09:39:21;10.20;26.90
26378;DHT22;14078;50.974;6.786;2024-02-21T09:41:50;10.30;1.00
26378;DHT22;14078;50.974;6.786;2024-02-21T09:44:21;10.40;99.80
26378;DHT22;14078;50.974;6.786;2024-02-21T09:46:53;10.40;1.00
26378;DHT22;14078;50.974;6.786;2024-02-21T09:49:29;10.40;1.00
26378;DHT22;14078;50.974;6.786;2024-02-21T09:52:00;10.30;62.20
26378;DHT22;14078;50.974;6.786;2024-02-21T09:54:28;10.40;99.90
26378;DHT22;14078;50.974;6.786;2024-02-21T09:56:55;10.40;1.00
26378;DHT22;14078;50.974;6.786;2024-02-21T09:59:22;10.30;99.90
26378;DHT22;14078;50.974;6.786;2024-02-21T10:01:49;10.30;1.00
26378;DHT22;14078;50.974;6.786;2024-02-21T10:04:17;10.30;1.00
26378;DHT22;14078;50.974;6.786;2024-02-21T10:06:46;10.20;1.00
26378;DHT22;14078;50.974;6.786;2024-02-21T10:09:20;10.30;99.90
26378;DHT22;14078;50.974;6.786;2024-02-21T10:11:48;10.40;99.90
26378;DHT22;14078;50.974;6.786;2024-02-21T10:14:15;10.40;99.90
26378;DHT22;14078;50.974;6.786;2024-02-21T10:16:42;10.50;99.90
26378;DHT22;14078;50.974;6.786;2024-02-21T10:19:16;10.60;99.90
26378;DHT22;14078;50.974;6.786;2024-02-21T10:21:42;10.60;99.90
26378;DHT22;14078;50.974;6.786;2024-02-21T10:24:11;10.60;1.00
26378;DHT22;14078;50.974;6.786;2024-02-21T10:26:38;10.60;99.90
26378;DHT22;14078;50.974;6.786;2024-02-21T10:29:05;10.70;99.90
26378;DHT22;14078;50.974;6.786;2024-02-21T10:31:31;10.70;90.60
26378;DHT22;14078;50.974;6.786;2024-02-21T10:34:00;10.70;1.00
26378;DHT22;14078;50.974;6.786;2024-02-21T10:36:28;10.80;1.00
26378;DHT22;14078;50.974;6.786;2024-02-21T10:38:55;10.90;1.00
26378;DHT22;14078;50.974;6.786;2024-02-21T10:41:25;10.80;99.90
26378;DHT22;14078;50.974;6.786;2024-02-21T10:43:54;10.70;1.00
26378;DHT22;14078;50.974;6.786;2024-02-21T10:46:22;10.80;99.90
26378;DHT22;14078;50.974;6.786;2024-02-21T10:48:58;10.80;99.90
26378;DHT22;14078;50.974;6.786;2024-02-21T10:51:32;10.80;27.10
26378;DHT22;14078;50.974;6.786;2024-02-21T10:54:09;10.70;99.90
26378;DHT22;14078;50.974;6.786;2024-02-21T10:56:39;10.90;99.90
26378;DHT22;14078;50.974;6.786;2024-02-21T10:59:07;10.90;99.90
26378;DHT22;14078;50.974;6.786;2024-02-21T11:01:34;10.80;1.00
26378;DHT22;14078;50.974;6.786;2024-02-21T11:04:03;10.90;1.00
26378;DHT22;14078;50.974;6.786;2024-02-21T11:06:30;11.10;99.90
26378;DHT22;14078;50.974;6.786;2024-02-21T11:09:02;11.00;99.90
26378;DHT22;14078;50.974;6.786;2024-02-21T11:11:29;11.10;99.90
26378;DHT22;14078;50.974;6.786;2024-02-21T11:14:05;11.10;1.00
26378;DHT22;14078;50.974;6.786;2024-02-21T11:16:36;11.00;99.90
26378;DHT22;14078;50.974;6.786;2024-02-21T11:19:05;11.00;99.90
26378;DHT22;14078;50.974;6.786;2024-02-21T11:21:33;11.00;99.90
26378;DHT22;14078;50.974;6.786;2024-02-21T11:24:00;11.20;99.90
26378;DHT22;14078;50.974;6.786;2024-02-21T11:26:28;11.10;99.90
26378;DHT22;14078;50.974;6.786;2024-02-21T11:28:57;11.10;99.90
26378;DHT22;14078;50.974;6.786;2024-02-21T11:31:26;11.10;99.90
26378;DHT22;14078;50.974;6.786;2024-02-21T11:33:53;11.00;20.20
26378;DHT22;14078;50.974;6.786;2024-02-21T11:36:24;11.00;99.90
26378;DHT22;14078;50.974;6.786;2024-02-21T11:38:51;11.00;79.50
26378;DHT22;14078;50.974;6.786;2024-02-21T11:41:18;11.00;99.90
26378;DHT22;14078;50.974;6.786;2024-02-21T11:43:46;11.00;1.00
26378;DHT22;14078;50.974;6.786;2024-02-21T11:46:14;11.00;99.90
26378;DHT22;14078;50.974;6.786;2024-02-21T11:48:42;11.20;99.90
26378;DHT22;14078;50.974;6.786;2024-02-21T11:51:21;11.20;91.70
26378;DHT22;14078;50.974;6.786;2024-02-21T11:53:47;11.20;99.90
26378;DHT22;14078;50.974;6.786;2024-02-21T11:56:14;11.20;99.90
26378;DHT22;14078;50.974;6.786;2024-02-21T11:58:41;11.30;99.90
26378;DHT22;14078;50.974;6.786;2024-02-21T12:01:08;11.20;1.00
26378;DHT22;14078;50.974;6.786;2024-02-21T12:03:35;11.30;99.90
26378;DHT22;14078;50.974;6.786;2024-02-21T12:06:03;11.40;1.00
26378;DHT22;14078;50.974;6.786;2024-02-21T12:08:41;11.40;6.30
26378;DHT22;14078;50.974;6.786;2024-02-21T12:11:16;11.50;1.00
26378;DHT22;14078;50.974;6.786;2024-02-21T12:13:43;11.50;99.90
26378;DHT22;14078;50.974;6.786;2024-02-21T12:16:10;11.50;1.00
26378;DHT22;14078;50.974;6.786;2024-02-21T12:18:36;11.40;1.00
26378;DHT22;14078;50.974;6.786;2024-02-21T12:21:06;11.30;99.90
26378;DHT22;14078;50.974;6.786;2024-02-21T12:23:33;11.30;1.00
26378;DHT22;14078;50.974;6.786;2024-02-21T12:26:00;11.20;1.00
26378;DHT22;14078;50.974;6.786;2024-02-21T12:28:27;11.20;1.00
26378;DHT22;14078;50.974;6.786;2024-02-21T12:30:53;11.20;1.00
26378;DHT22;14078;50.974;6.786;2024-02-21T12:33:21;11.20;99.90
26378;DHT22;14078;50.974;6.786;2024-02-21T12:35:48;11.20;1.00
26378;DHT22;14078;50.974;6.786;2024-02-21T12:38:16;11.20;1.00
26378;DHT22;14078;50.974;6.786;2024-02-21T12:40:43;11.20;1.00
26378;DHT22;14078;50.974;6.786;2024-02-21T12:43:10;11.30;1.00
26378;DHT22;14078;50.974;6.786;2024-02-21T12:45:36;11.30;1.00
26378;DHT22;14078;50.974;6.786;2024-02-21T12:48:03;11.30;1.00
26378;DHT22;14078;50.974;6.786;2024-02-21T12:50:30;11.50;99.90
26378;DHT22;14078;50.974;6.786;2024-02-21T12:52:57;11.40;1.00
26378;DHT22;14078;50.974;6.786;2024-02-21T12:55:26;11.50;99.90
26378;DHT22;14078;50.974;6.786;2024-02-21T12:57:52;11.80;99.90
26378;DHT22;14078;50.974;6.786;2024-02-21T13:00:19;11.90;99.90
26378;DHT22;14078;50.974;6.786;2024-02-21T13:02:46;11.90;99.90
26378;DHT22;14078;50.974;6.786;2024-02-21T13:05:13;11.70;99.90
26378;DHT22;14078;50.974;6.786;2024-02-21T13:07:39;11.70;99.90
26378;DHT22;14078;50.974;6.786;2024-02-21T13:10:07;11.80;99.90
26378;DHT22;14078;50.974;6.786;2024-02-21T13:12:35;11.80;99.90
26378;DHT22;14078;50.974;6.786;2024-02-21T13:15:02;12.00;99.90
26378;DHT22;14078;50.974;6.786;2024-02-21T13:17:29;12.10;99.90
26378;DHT22;14078;50.974;6.786;2024-02-21T13:19:57;12.00;1.00
26378;DHT22;14078;50.974;6.786;2024-02-21T13:22:24;11.90;99.90
26378;DHT22;14078;50.974;6.786;2024-02-21T13:24:52;11.90;99.90
26378;DHT22;14078;50.974;6.786;2024-02-21T13:27:18;12.00;17.90
26378;DHT22;14078;50.974;6.786;2024-02-21T13:29:46;11.90;24.60
26378;DHT22;14078;50.974;6.786;2024-02-21T13:32:13;12.00;41.50
26378;DHT22;14078;50.974;6.786;2024-02-21T13:34:41;12.10;59.30
26378;DHT22;14078;50.974;6.786;2024-02-21T13:37:08;12.00;1.00
26378;DHT22;14078;50.974;6.786;2024-02-21T13:39:35;11.90;1.00
26378;DHT22;14078;50.974;6.786;2024-02-21T13:42:02;11.80;1.00
26378;DHT22;14078;50.974;6.786;2024-02-21T13:44:31;11.80;1.00
26378;DHT22;14078;50.974;6.786;2024-02-21T13:46:59;11.80;1.00
26378;DHT22;14078;50.974;6.786;2024-02-21T13:49:26;11.80;1.00
26378;DHT22;14078;50.974;6.786;2024-02-21T13:51:54;11.90;1.00
26378;DHT22;14078;50.974;6.786;2024-02-21T13:54:20;11.90;1.00
26378;DHT22;14078;50.974;6.786;2024-02-21T13:56:47;11.90;1.00
26378;DHT22;14078;50.974;6.786;2024-02-21T13:59:15;11.80;1.00
26378;DHT22;14078;50.974;6.786;2024-02-21T14:01:42;11.70;1.00
26378;DHT22;14078;50.974;6.786;2024-02-21T14:04:10;11.70;1.00
26378;DHT22;14078;50.974;6.786;2024-02-21T14:06:37;11.70;1.00
26378;DHT22;14078;50.974;6.786;2024-02-21T14:09:08;11.70;1.00
26378;DHT22;14078;50.974;6.786;2024-02-21T14:11:35;11.80;1.00
26378;DHT22;14078;50.974;6.786;2024-02-21T14:14:03;11.80;1.00
26378;DHT22;14078;50.974;6.786;2024-02-21T14:16:30;11.90;1.00
26378;DHT22;14078;50.974;6.786;2024-02-21T14:18:57;11.90;1.00
26378;DHT22;14078;50.974;6.786;2024-02-21T14:21:25;12.00;1.00
26378;DHT22;14078;50.974;6.786;2024-02-21T14:23:52;12.00;1.00
26378;DHT22;14078;50.974;6.786;2024-02-21T14:26:19;12.20;1.00
26378;DHT22;14078;50.974;6.786;2024-02-21T14:28:47;12.10;1.00
26378;DHT22;14078;50.974;6.786;2024-02-21T14:31:13;12.20;1.00
26378;DHT22;14078;50.974;6.786;2024-02-21T14:33:40;12.20;1.00
26378;DHT22;14078;50.974;6.786;2024-02-21T14:36:07;12.10;1.00
26378;DHT22;14078;50.974;6.786;2024-02-21T14:38:35;12.20;1.00
26378;DHT22;14078;50.974;6.786;2024-02-21T14:41:02;12.20;8.70
26378;DHT22;14078;50.974;6.786;2024-02-21T14:43:28;12.20;1.30
26378;DHT22;14078;50.974;6.786;2024-02-21T14:45:55;12.30;1.00
26378;DHT22;14078;50.974;6.786;2024-02-21T14:48:22;12.30;1.00
26378;DHT22;14078;50.974;6.786;2024-02-21T14:50:49;12.30;1.00
26378;DHT22;14078;50.974;6.786;2024-02-21T14:53:16;12.40;1.00
26378;DHT22;14078;50.974;6.786;2024-02-21T14:55:45;12.30;1.00
26378;DHT22;14078;50.974;6.786;2024-02-21T14:58:12;12.40;1.00
26378;DHT22;14078;50.974;6.786;2024-02-21T15:00:38;12.40;1.00
26378;DHT22;14078;50.974;6.786;2024-02-21T15:03:05;12.50;99.90
26378;DHT22;14078;50.974;6.786;2024-02-21T15:05:32;12.50;45.50
26378;DHT22;14078;50.974;6.786;2024-02-21T15:07:59;12.40;17.00
26378;DHT22;14078;50.974;6.786;2024-02-21T15:10:26;12.40;1.00
26378;DHT22;14078;50.974;6.786;2024-02-21T15:12:54;12.40;1.00
26378;DHT22;14078;50.974;6.786;2024-02-21T15:15:21;12.30;14.70
26378;DHT22;14078;50.974;6.786;2024-02-21T15:17:48;12.20;51.40
26378;DHT22;14078;50.974;6.786;2024-02-21T15:20:15;12.10;99.90
26378;DHT22;14078;50.974;6.786;2024-02-21T15:22:42;12.10;99.90
26378;DHT22;14078;50.974;6.786;2024-02-21T15:25:09;12.10;99.90
26378;DHT22;14078;50.974;6.786;2024-02-21T15:27:40;12.10;99.90
26378;DHT22;14078;50.974;6.786;2024-02-21T15:30:10;12.00;99.90
26378;DHT22;14078;50.974;6.786;2024-02-21T15:32:38;11.90;99.90
26378;DHT22;14078;50.974;6.786;2024-02-21T15:35:05;11.90;99.90
26378;DHT22;14078;50.974;6.786;2024-02-21T15:37:32;11.80;99.90
26378;DHT22;14078;50.974;6.786;2024-02-21T15:39:59;11.80;96.50
26378;DHT22;14078;50.974;6.786;2024-02-21T15:42:26;11.70;87.20
26378;DHT22;14078;50.974;6.786;2024-02-21T15:44:53;11.60;98.80
26378;DHT22;14078;50.974;6.786;2024-02-21T15:47:21;11.60;94.20
26378;DHT22;14078;50.974;6.786;2024-02-21T15:49:49;11.50;95.80